sensor_id;sensor_type;location;lat;lon;timestamp;pressure;altitude;pressure_sealevel;temperature
64488;BMP280;50864;45.050;39.014;2023-01-01T00:01:13;102794.38;;;5.39
64488;BMP280;50864;45.050;39.014;2023-01-01T00:03:40;102794.62;;;5.44
64488;BMP280;50864;45.050;39.014;2023-01-01T00:06:12;102793.38;;;5.47
64488;BMP280;50864;45.050;39.014;2023-01-01T00:08:39;102799.97;;;5.51
64488;BMP280;50864;45.050;39.014;2023-01-01T00:11:07;102792.97;;;5.43
64488;BMP280;50864;45.050;39.014;2023-01-01T00:13:35;102794.81;;;5.43
64488;BMP280;50864;45.050;39.014;2023-01-01T00:16:11;102793.19;;;5.42
64488;BMP280;50864;45.050;39.014;2023-01-01T00:18:38;102780.94;;;5.47
64488;BMP280;50864;45.050;39.014;2023-01-01T00:21:07;102792.63;;;5.53
64488;BMP280;50864;45.050;39.014;2023-01-01T00:23:34;102785.28;;;5.61
64488;BMP280;50864;45.050;39.014;2023-01-01T00:26:07;102781.81;;;5.61
64488;BMP280;50864;45.050;39.014;2023-01-01T00:28:33;102783.84;;;5.59
64488;BMP280;50864;45.050;39.014;2023-01-01T00:30:59;102785.38;;;5.68
64488;BMP280;50864;45.050;39.014;2023-01-01T00:33:25;102788.28;;;5.80
64488;BMP280;50864;45.050;39.014;2023-01-01T00:35:51;102790.75;;;5.81
64488;BMP280;50864;45.050;39.014;2023-01-01T00:38:17;102791.38;;;5.83
64488;BMP280;50864;45.050;39.014;2023-01-01T00:40:43;102797.28;;;5.85
64488;BMP280;50864;45.050;39.014;2023-01-01T00:43:09;102790.53;;;5.83
64488;BMP280;50864;45.050;39.014;2023-01-01T00:45:35;102788.66;;;5.77
64488;BMP280;50864;45.050;39.014;2023-01-01T00:48:01;102790.50;;;5.70
64488;BMP280;50864;45.050;39.014;2023-01-01T00:50:27;102789.84;;;5.68
64488;BMP280;50864;45.050;39.014;2023-01-01T00:52:53;102785.28;;;5.61
64488;BMP280;50864;45.050;39.014;2023-01-01T00:55:19;102784.47;;;5.54
64488;BMP280;50864;45.050;39.014;2023-01-01T00:57:45;102776.44;;;5.48
64488;BMP280;50864;45.050;39.014;2023-01-01T01:00:11;102774.78;;;5.40
64488;BMP280;50864;45.050;39.014;2023-01-01T01:02:38;102772.06;;;5.34
64488;BMP280;50864;45.050;39.014;2023-01-01T01:05:04;102771.00;;;5.28
64488;BMP280;50864;45.050;39.014;2023-01-01T01:07:37;102764.66;;;5.22
64488;BMP280;50864;45.050;39.014;2023-01-01T01:10:05;102759.72;;;5.19
64488;BMP280;50864;45.050;39.014;2023-01-01T01:12:33;102766.44;;;5.15
64488;BMP280;50864;45.050;39.014;2023-01-01T01:14:59;102766.63;;;5.14
64488;BMP280;50864;45.050;39.014;2023-01-01T01:17:26;102763.53;;;5.10
64488;BMP280;50864;45.050;39.014;2023-01-01T01:19:51;102771.47;;;5.10
64488;BMP280;50864;45.050;39.014;2023-01-01T01:22:17;102763.09;;;5.07
64488;BMP280;50864;45.050;39.014;2023-01-01T01:24:43;102764.75;;;5.08
64488;BMP280;50864;45.050;39.014;2023-01-01T01:27:09;102773.94;;;5.05
64488;BMP280;50864;45.050;39.014;2023-01-01T01:29:35;102764.12;;;5.06
64488;BMP280;50864;45.050;39.014;2023-01-01T01:32:01;102770.25;;;5.06
64488;BMP280;50864;45.050;39.014;2023-01-01T01:34:27;102780.84;;;5.06
64488;BMP280;50864;45.050;39.014;2023-01-01T01:36:54;102774.94;;;5.04
64488;BMP280;50864;45.050;39.014;2023-01-01T01:39:20;102761.22;;;5.01
64488;BMP280;50864;45.050;39.014;2023-01-01T01:41:47;102769.37;;;4.99
64488;BMP280;50864;45.050;39.014;2023-01-01T01:52:41;102760.31;;;4.87
64488;BMP280;50864;45.050;39.014;2023-01-01T01:55:11;102763.31;;;4.84
64488;BMP280;50864;45.050;39.014;2023-01-01T01:57:39;102752.06;;;4.82
64488;BMP280;50864;45.050;39.014;2023-01-01T02:00:06;102759.44;;;4.80
64488;BMP280;50864;45.050;39.014;2023-01-01T02:02:53;102757.78;;;4.79
64488;BMP280;50864;45.050;39.014;2023-01-01T02:05:21;102757.16;;;4.77
64488;BMP280;50864;45.050;39.014;2023-01-01T02:07:48;102769.78;;;4.75
64488;BMP280;50864;45.050;39.014;2023-01-01T02:10:14;102767.34;;;4.73
64488;BMP280;50864;45.050;39.014;2023-01-01T02:12:40;102767.94;;;4.75
64488;BMP280;50864;45.050;39.014;2023-01-01T02:15:06;102772.06;;;4.78
64488;BMP280;50864;45.050;39.014;2023-01-01T02:17:39;102770.41;;;4.77
64488;BMP280;50864;45.050;39.014;2023-01-01T02:31:22;102783.00;;;4.90
64488;BMP280;50864;45.050;39.014;2023-01-01T02:33:49;102779.69;;;4.87
64488;BMP280;50864;45.050;39.014;2023-01-01T02:36:18;102789.03;;;4.83
64488;BMP280;50864;45.050;39.014;2023-01-01T02:38:47;102787.38;;;4.82
64488;BMP280;50864;45.050;39.014;2023-01-01T02:41:21;102800.84;;;4.81
64488;BMP280;50864;45.050;39.014;2023-01-01T02:43:48;102795.53;;;4.81
64488;BMP280;50864;45.050;39.014;2023-01-01T02:46:14;102807.19;;;4.80
64488;BMP280;50864;45.050;39.014;2023-01-01T02:48:42;102815.56;;;4.83
64488;BMP280;50864;45.050;39.014;2023-01-01T02:59:21;102821.06;;;4.82
64488;BMP280;50864;45.050;39.014;2023-01-01T03:07:40;102835.09;;;4.76
64488;BMP280;50864;45.050;39.014;2023-01-01T03:10:16;102833.66;;;4.73
64488;BMP280;50864;45.050;39.014;2023-01-01T03:12:55;102829.53;;;4.71
64488;BMP280;50864;45.050;39.014;2023-01-01T03:18:25;102821.31;;;4.66
64488;BMP280;50864;45.050;39.014;2023-01-01T03:20:54;102817.03;;;4.65
64488;BMP280;50864;45.050;39.014;2023-01-01T03:23:26;102816.63;;;4.68
64488;BMP280;50864;45.050;39.014;2023-01-01T03:25:56;102819.09;;;4.69
64488;BMP280;50864;45.050;39.014;2023-01-01T03:28:28;102831.38;;;4.70
64488;BMP280;50864;45.050;39.014;2023-01-01T03:30:59;102829.72;;;4.69
64488;BMP280;50864;45.050;39.014;2023-01-01T03:33:32;102828.88;;;4.69
64488;BMP280;50864;45.050;39.014;2023-01-01T03:36:11;102825.63;;;4.67
64488;BMP280;50864;45.050;39.014;2023-01-01T03:38:46;102822.53;;;4.63
64488;BMP280;50864;45.050;39.014;2023-01-01T03:43:52;102821.88;;;4.61
64488;BMP280;50864;45.050;39.014;2023-01-01T03:46:23;102820.88;;;4.62
64488;BMP280;50864;45.050;39.014;2023-01-01T03:48:52;102815.09;;;4.59
64488;BMP280;50864;45.050;39.014;2023-01-01T03:54:13;102824.53;;;4.61
64488;BMP280;50864;45.050;39.014;2023-01-01T03:56:45;102831.72;;;4.67
64488;BMP280;50864;45.050;39.014;2023-01-01T04:02:07;102854.47;;;4.76
64488;BMP280;50864;45.050;39.014;2023-01-01T04:04:36;102847.34;;;4.77
64488;BMP280;50864;45.050;39.014;2023-01-01T04:07:02;102853.28;;;4.79
64488;BMP280;50864;45.050;39.014;2023-01-01T04:09:31;102855.72;;;4.80
64488;BMP280;50864;45.050;39.014;2023-01-01T04:11:58;102850.69;;;4.85
64488;BMP280;50864;45.050;39.014;2023-01-01T04:14:33;102849.31;;;4.90
64488;BMP280;50864;45.050;39.014;2023-01-01T04:17:00;102847.72;;;4.95
64488;BMP280;50864;45.050;39.014;2023-01-01T04:19:26;102840.19;;;4.99
64488;BMP280;50864;45.050;39.014;2023-01-01T04:21:53;102836.16;;;5.03
64488;BMP280;50864;45.050;39.014;2023-01-01T04:24:19;102826.19;;;5.05
64488;BMP280;50864;45.050;39.014;2023-01-01T04:26:45;102838.03;;;5.09
64488;BMP280;50864;45.050;39.014;2023-01-01T04:29:11;102830.34;;;5.14
64488;BMP280;50864;45.050;39.014;2023-01-01T04:31:37;102829.78;;;5.18
64488;BMP280;50864;45.050;39.014;2023-01-01T04:34:03;102832.84;;;5.22
64488;BMP280;50864;45.050;39.014;2023-01-01T04:36:29;102825.53;;;5.24
64488;BMP280;50864;45.050;39.014;2023-01-01T04:38:55;102841.06;;;5.27
64488;BMP280;50864;45.050;39.014;2023-01-01T04:41:21;102840.03;;;5.28
64488;BMP280;50864;45.050;39.014;2023-01-01T04:43:48;102831.72;;;5.31
64488;BMP280;50864;45.050;39.014;2023-01-01T04:46:16;102827.63;;;5.35
64488;BMP280;50864;45.050;39.014;2023-01-01T04:48:42;102827.91;;;5.40
64488;BMP280;50864;45.050;39.014;2023-01-01T04:51:10;102831.97;;;5.43
64488;BMP280;50864;45.050;39.014;2023-01-01T04:53:37;102827.91;;;5.47
64488;BMP280;50864;45.050;39.014;2023-01-01T04:56:04;102839.81;;;5.51
64488;BMP280;50864;45.050;39.014;2023-01-01T04:58:31;102838.41;;;5.55
64488;BMP280;50864;45.050;39.014;2023-01-01T05:00:58;102837.41;;;5.62
64488;BMP280;50864;45.050;39.014;2023-01-01T05:03:24;102845.47;;;5.69
64488;BMP280;50864;45.050;39.014;2023-01-01T05:06:19;102853.84;;;5.73
64488;BMP280;50864;45.050;39.014;2023-01-01T05:08:47;102851.78;;;5.75
64488;BMP280;50864;45.050;39.014;2023-01-01T05:11:15;102852.19;;;5.72
64488;BMP280;50864;45.050;39.014;2023-01-01T05:13:44;102847.09;;;5.70
64488;BMP280;50864;45.050;39.014;2023-01-01T05:16:12;102837.69;;;5.68
64488;BMP280;50864;45.050;39.014;2023-01-01T05:18:40;102840.91;;;5.63
64488;BMP280;50864;45.050;39.014;2023-01-01T05:21:09;102836.78;;;5.60
64488;BMP280;50864;45.050;39.014;2023-01-01T05:23:35;102831.66;;;5.59
64488;BMP280;50864;45.050;39.014;2023-01-01T05:26:13;102830.66;;;5.60
64488;BMP280;50864;45.050;39.014;2023-01-01T05:28:40;102832.09;;;5.62
64488;BMP280;50864;45.050;39.014;2023-01-01T05:31:07;102836.41;;;5.63
64488;BMP280;50864;45.050;39.014;2023-01-01T05:33:34;102846.84;;;5.65
64488;BMP280;50864;45.050;39.014;2023-01-01T05:36:02;102835.41;;;5.64
64488;BMP280;50864;45.050;39.014;2023-01-01T05:38:29;102838.25;;;5.63
64488;BMP280;50864;45.050;39.014;2023-01-01T05:40:55;102852.16;;;5.65
64488;BMP280;50864;45.050;39.014;2023-01-01T05:43:21;102850.16;;;5.74
64488;BMP280;50864;45.050;39.014;2023-01-01T05:45:47;102846.75;;;5.86
64488;BMP280;50864;45.050;39.014;2023-01-01T05:48:13;102834.13;;;5.95
64488;BMP280;50864;45.050;39.014;2023-01-01T05:50:40;102827.22;;;6.00
64488;BMP280;50864;45.050;39.014;2023-01-01T05:53:06;102819.87;;;6.09
64488;BMP280;50864;45.050;39.014;2023-01-01T05:55:32;102809.31;;;6.29
64488;BMP280;50864;45.050;39.014;2023-01-01T05:57:58;102800.16;;;6.58
64488;BMP280;50864;45.050;39.014;2023-01-01T06:00:24;102794.66;;;6.92
64488;BMP280;50864;45.050;39.014;2023-01-01T06:02:50;102790.31;;;7.31
64488;BMP280;50864;45.050;39.014;2023-01-01T06:05:16;102778.47;;;7.71
64488;BMP280;50864;45.050;39.014;2023-01-01T06:07:42;102771.09;;;8.11
64488;BMP280;50864;45.050;39.014;2023-01-01T06:10:08;102774.53;;;8.49
64488;BMP280;50864;45.050;39.014;2023-01-01T06:12:34;102779.75;;;8.87
64488;BMP280;50864;45.050;39.014;2023-01-01T06:15:00;102773.41;;;9.25
64488;BMP280;50864;45.050;39.014;2023-01-01T06:17:26;102785.63;;;9.69
64488;BMP280;50864;45.050;39.014;2023-01-01T06:19:52;102788.81;;;10.07
64488;BMP280;50864;45.050;39.014;2023-01-01T06:22:18;102791.53;;;10.42
64488;BMP280;50864;45.050;39.014;2023-01-01T06:24:44;102794.81;;;10.68
64488;BMP280;50864;45.050;39.014;2023-01-01T06:27:10;102794.56;;;10.92
64488;BMP280;50864;45.050;39.014;2023-01-01T06:29:36;102796.53;;;11.20
64488;BMP280;50864;45.050;39.014;2023-01-01T06:32:02;102791.81;;;11.39
64488;BMP280;50864;45.050;39.014;2023-01-01T06:34:28;102790.84;;;11.45
64488;BMP280;50864;45.050;39.014;2023-01-01T06:36:54;102788.38;;;11.55
64488;BMP280;50864;45.050;39.014;2023-01-01T06:39:20;102793.31;;;11.75
64488;BMP280;50864;45.050;39.014;2023-01-01T06:41:46;102782.13;;;11.94
64488;BMP280;50864;45.050;39.014;2023-01-01T06:44:12;102786.03;;;12.04
64488;BMP280;50864;45.050;39.014;2023-01-01T06:46:38;102779.84;;;12.03
64488;BMP280;50864;45.050;39.014;2023-01-01T06:49:06;102775.78;;;12.17
64488;BMP280;50864;45.050;39.014;2023-01-01T06:51:42;102762.13;;;12.35
64488;BMP280;50864;45.050;39.014;2023-01-01T06:54:09;102751.69;;;12.56
64488;BMP280;50864;45.050;39.014;2023-01-01T06:56:35;102760.81;;;12.76
64488;BMP280;50864;45.050;39.014;2023-01-01T06:59:03;102759.13;;;12.92
64488;BMP280;50864;45.050;39.014;2023-01-01T07:01:31;102763.09;;;13.06
64488;BMP280;50864;45.050;39.014;2023-01-01T07:03:59;102769.03;;;13.30
64488;BMP280;50864;45.050;39.014;2023-01-01T07:06:27;102766.38;;;13.62
64488;BMP280;50864;45.050;39.014;2023-01-01T07:08:53;102772.53;;;13.89
64488;BMP280;50864;45.050;39.014;2023-01-01T07:11:20;102778.44;;;14.18
64488;BMP280;50864;45.050;39.014;2023-01-01T07:13:46;102788.00;;;14.36
64488;BMP280;50864;45.050;39.014;2023-01-01T07:16:13;102796.91;;;14.41
64488;BMP280;50864;45.050;39.014;2023-01-01T07:18:39;102806.13;;;14.55
64488;BMP280;50864;45.050;39.014;2023-01-01T07:21:06;102818.16;;;14.85
64488;BMP280;50864;45.050;39.014;2023-01-01T07:23:46;102808.59;;;15.14
64488;BMP280;50864;45.050;39.014;2023-01-01T07:26:12;102784.62;;;15.33
64488;BMP280;50864;45.050;39.014;2023-01-01T07:28:38;102770.06;;;15.29
64488;BMP280;50864;45.050;39.014;2023-01-01T07:31:04;102765.37;;;14.99
64488;BMP280;50864;45.050;39.014;2023-01-01T07:33:30;102767.16;;;14.73
64488;BMP280;50864;45.050;39.014;2023-01-01T07:35:56;102769.22;;;14.51
64488;BMP280;50864;45.050;39.014;2023-01-01T07:38:22;102764.16;;;14.17
64488;BMP280;50864;45.050;39.014;2023-01-01T07:40:48;102764.78;;;13.93
64488;BMP280;50864;45.050;39.014;2023-01-01T07:43:14;102771.41;;;14.12
64488;BMP280;50864;45.050;39.014;2023-01-01T07:45:40;102768.13;;;14.52
64488;BMP280;50864;45.050;39.014;2023-01-01T07:48:12;102773.91;;;14.81
64488;BMP280;50864;45.050;39.014;2023-01-01T07:50:41;102772.94;;;15.02
64488;BMP280;50864;45.050;39.014;2023-01-01T07:53:07;102760.03;;;15.24
64488;BMP280;50864;45.050;39.014;2023-01-01T07:55:34;102740.62;;;15.42
64488;BMP280;50864;45.050;39.014;2023-01-01T07:58:01;102721.25;;;15.40
64488;BMP280;50864;45.050;39.014;2023-01-01T08:00:27;102725.56;;;15.51
64488;BMP280;50864;45.050;39.014;2023-01-01T08:02:53;102726.88;;;15.64
64488;BMP280;50864;45.050;39.014;2023-01-01T08:05:19;102726.88;;;15.84
64488;BMP280;50864;45.050;39.014;2023-01-01T08:07:49;102735.47;;;16.06
64488;BMP280;50864;45.050;39.014;2023-01-01T08:10:17;102742.75;;;16.21
64488;BMP280;50864;45.050;39.014;2023-01-01T08:12:45;102745.16;;;16.28
64488;BMP280;50864;45.050;39.014;2023-01-01T08:15:13;102738.72;;;16.19
64488;BMP280;50864;45.050;39.014;2023-01-01T08:17:39;102744.38;;;16.07
64488;BMP280;50864;45.050;39.014;2023-01-01T08:20:06;102740.66;;;15.83
64488;BMP280;50864;45.050;39.014;2023-01-01T08:22:33;102747.97;;;15.67
64488;BMP280;50864;45.050;39.014;2023-01-01T08:24:59;102744.69;;;15.60
64488;BMP280;50864;45.050;39.014;2023-01-01T08:27:25;102735.28;;;15.68
64488;BMP280;50864;45.050;39.014;2023-01-01T08:29:51;102719.09;;;15.68
64488;BMP280;50864;45.050;39.014;2023-01-01T08:32:17;102726.88;;;15.59
64488;BMP280;50864;45.050;39.014;2023-01-01T08:34:43;102724.75;;;15.61
64488;BMP280;50864;45.050;39.014;2023-01-01T08:37:12;102713.94;;;15.61
64488;BMP280;50864;45.050;39.014;2023-01-01T08:39:38;102726.62;;;15.66
64488;BMP280;50864;45.050;39.014;2023-01-01T08:42:04;102725.25;;;15.58
64488;BMP280;50864;45.050;39.014;2023-01-01T08:44:30;102733.62;;;15.41
64488;BMP280;50864;45.050;39.014;2023-01-01T08:46:57;102728.22;;;15.31
64488;BMP280;50864;45.050;39.014;2023-01-01T08:49:22;102725.78;;;15.25
64488;BMP280;50864;45.050;39.014;2023-01-01T08:51:48;102727.09;;;15.02
64488;BMP280;50864;45.050;39.014;2023-01-01T08:54:14;102726.25;;;14.86
64488;BMP280;50864;45.050;39.014;2023-01-01T08:56:40;102728.37;;;14.84
64488;BMP280;50864;45.050;39.014;2023-01-01T08:59:06;102733.72;;;14.79
64488;BMP280;50864;45.050;39.014;2023-01-01T09:01:32;102736.41;;;14.64
64488;BMP280;50864;45.050;39.014;2023-01-01T09:03:58;102736.91;;;14.61
64488;BMP280;50864;45.050;39.014;2023-01-01T09:06:24;102736.62;;;14.57
64488;BMP280;50864;45.050;39.014;2023-01-01T09:08:50;102742.00;;;14.52
64488;BMP280;50864;45.050;39.014;2023-01-01T09:11:23;102737.41;;;14.53
64488;BMP280;50864;45.050;39.014;2023-01-01T09:13:49;102734.19;;;14.51
64488;BMP280;50864;45.050;39.014;2023-01-01T09:16:16;102738.44;;;14.42
64488;BMP280;50864;45.050;39.014;2023-01-01T09:18:42;102736.00;;;14.40
64488;BMP280;50864;45.050;39.014;2023-01-01T09:21:08;102735.75;;;14.42
64488;BMP280;50864;45.050;39.014;2023-01-01T09:23:34;102726.03;;;14.41
64488;BMP280;50864;45.050;39.014;2023-01-01T09:26:07;102722.28;;;14.42
64488;BMP280;50864;45.050;39.014;2023-01-01T09:28:34;102724.97;;;14.42
64488;BMP280;50864;45.050;39.014;2023-01-01T09:31:01;102732.75;;;14.38
64488;BMP280;50864;45.050;39.014;2023-01-01T09:33:29;102716.31;;;14.35
64488;BMP280;50864;45.050;39.014;2023-01-01T09:36:13;102727.66;;;14.37
64488;BMP280;50864;45.050;39.014;2023-01-01T09:38:39;102723.62;;;14.44
64488;BMP280;50864;45.050;39.014;2023-01-01T09:41:09;102728.75;;;14.46
64488;BMP280;50864;45.050;39.014;2023-01-01T09:44:02;102726.31;;;14.44
64488;BMP280;50864;45.050;39.014;2023-01-01T09:46:29;102714.97;;;14.37
64488;BMP280;50864;45.050;39.014;2023-01-01T09:49:00;102726.78;;;14.31
64488;BMP280;50864;45.050;39.014;2023-01-01T09:51:33;102713.63;;;14.35
64488;BMP280;50864;45.050;39.014;2023-01-01T09:54:06;102714.22;;;14.52
64488;BMP280;50864;45.050;39.014;2023-01-01T09:56:38;102699.47;;;14.64
64488;BMP280;50864;45.050;39.014;2023-01-01T09:59:09;102688.47;;;14.76
64488;BMP280;50864;45.050;39.014;2023-01-01T10:07:32;102691.78;;;15.13
64488;BMP280;50864;45.050;39.014;2023-01-01T10:12:38;102689.09;;;15.24
64488;BMP280;50864;45.050;39.014;2023-01-01T10:15:16;102690.16;;;15.33
64488;BMP280;50864;45.050;39.014;2023-01-01T10:17:47;102684.78;;;15.38
64488;BMP280;50864;45.050;39.014;2023-01-01T10:20:24;102688.03;;;15.45
64488;BMP280;50864;45.050;39.014;2023-01-01T10:23:19;102677.75;;;15.52
64488;BMP280;50864;45.050;39.014;2023-01-01T10:25:46;102672.06;;;15.58
64488;BMP280;50864;45.050;39.014;2023-01-01T10:28:37;102672.06;;;15.58
64488;BMP280;50864;45.050;39.014;2023-01-01T10:33:56;102672.38;;;15.62
64488;BMP280;50864;45.050;39.014;2023-01-01T10:36:23;102666.16;;;15.67
64488;BMP280;50864;45.050;39.014;2023-01-01T10:38:49;102673.97;;;15.63
64488;BMP280;50864;45.050;39.014;2023-01-01T10:41:15;102682.38;;;15.51
64488;BMP280;50864;45.050;39.014;2023-01-01T10:43:43;102655.91;;;15.43
64488;BMP280;50864;45.050;39.014;2023-01-01T10:46:12;102652.94;;;15.45
64488;BMP280;50864;45.050;39.014;2023-01-01T10:48:40;102655.62;;;15.45
64488;BMP280;50864;45.050;39.014;2023-01-01T10:51:26;102652.41;;;15.48
64488;BMP280;50864;45.050;39.014;2023-01-01T10:53:52;102654.84;;;15.49
64488;BMP280;50864;45.050;39.014;2023-01-01T10:56:22;102666.97;;;15.47
64488;BMP280;50864;45.050;39.014;2023-01-01T10:58:49;102662.94;;;15.39
64488;BMP280;50864;45.050;39.014;2023-01-01T11:01:24;102666.44;;;15.35
64488;BMP280;50864;45.050;39.014;2023-01-01T11:06:35;102670.75;;;15.21
64488;BMP280;50864;45.050;39.014;2023-01-01T11:09:04;102672.34;;;15.16
64488;BMP280;50864;45.050;39.014;2023-01-01T11:11:38;102678.03;;;15.15
64488;BMP280;50864;45.050;39.014;2023-01-01T11:14:18;102677.22;;;15.09
64488;BMP280;50864;45.050;39.014;2023-01-01T11:16:45;102673.94;;;15.07
64488;BMP280;50864;45.050;39.014;2023-01-01T11:19:21;102679.91;;;15.09
64488;BMP280;50864;45.050;39.014;2023-01-01T11:21:48;102678.84;;;15.10
64488;BMP280;50864;45.050;39.014;2023-01-01T11:24:20;102669.66;;;15.06
64488;BMP280;50864;45.050;39.014;2023-01-01T11:26:49;102677.75;;;15.06
64488;BMP280;50864;45.050;39.014;2023-01-01T11:31:44;102671.25;;;15.02
64488;BMP280;50864;45.050;39.014;2023-01-01T11:34:31;102675.84;;;15.02
64488;BMP280;50864;45.050;39.014;2023-01-01T11:39:46;102679.34;;;15.07
64488;BMP280;50864;45.050;39.014;2023-01-01T11:42:25;102675.56;;;15.08
64488;BMP280;50864;45.050;39.014;2023-01-01T11:44:57;102675.88;;;15.12
64488;BMP280;50864;45.050;39.014;2023-01-01T11:47:37;102666.97;;;15.11
64488;BMP280;50864;45.050;39.014;2023-01-01T11:55:23;102662.66;;;15.10
64488;BMP280;50864;45.050;39.014;2023-01-01T12:00:41;102673.69;;;15.09
64488;BMP280;50864;45.050;39.014;2023-01-01T12:05:51;102681.47;;;14.95
64488;BMP280;50864;45.050;39.014;2023-01-01T12:08:39;102683.91;;;14.92
64488;BMP280;50864;45.050;39.014;2023-01-01T12:11:31;102670.19;;;14.88
64488;BMP280;50864;45.050;39.014;2023-01-01T12:14:07;102687.41;;;14.87
64488;BMP280;50864;45.050;39.014;2023-01-01T12:17:33;102676.88;;;14.81
64488;BMP280;50864;45.050;39.014;2023-01-01T12:20:34;102675.81;;;14.77
64488;BMP280;50864;45.050;39.014;2023-01-01T12:22:29;102687.31;;;14.67
64488;BMP280;50864;45.050;39.014;2023-01-01T12:24:57;102693.53;;;14.67
64488;BMP280;50864;45.050;39.014;2023-01-01T12:30:22;102686.28;;;14.73
64488;BMP280;50864;45.050;39.014;2023-01-01T12:33:12;102688.44;;;14.71
64488;BMP280;50864;45.050;39.014;2023-01-01T12:55:07;102697.47;;;14.40
64488;BMP280;50864;45.050;39.014;2023-01-01T12:58:03;102699.62;;;14.38
64488;BMP280;50864;45.050;39.014;2023-01-01T13:00:36;102691.75;;;14.31
64488;BMP280;50864;45.050;39.014;2023-01-01T13:03:25;102696.59;;;14.24
64488;BMP280;50864;45.050;39.014;2023-01-01T13:05:53;102705.72;;;14.18
64488;BMP280;50864;45.050;39.014;2023-01-01T13:08:21;102703.25;;;14.11
64488;BMP280;50864;45.050;39.014;2023-01-01T13:10:52;102706.69;;;14.07
64488;BMP280;50864;45.050;39.014;2023-01-01T13:13:19;102706.41;;;13.98
64488;BMP280;50864;45.050;39.014;2023-01-01T13:15:50;102708.91;;;13.78
64488;BMP280;50864;45.050;39.014;2023-01-01T13:18:18;102717.78;;;13.73
64488;BMP280;50864;45.050;39.014;2023-01-01T13:20:58;102710.41;;;13.64
64488;BMP280;50864;45.050;39.014;2023-01-01T13:42:42;102716.75;;;12.99
64488;BMP280;50864;45.050;39.014;2023-01-01T13:45:24;102696.53;;;12.92
64488;BMP280;50864;45.050;39.014;2023-01-01T13:47:56;102714.44;;;12.86
64488;BMP280;50864;45.050;39.014;2023-01-01T13:53:11;102702.91;;;12.64
64488;BMP280;50864;45.050;39.014;2023-01-01T14:04:31;102722.06;;;12.51
64488;BMP280;50864;45.050;39.014;2023-01-01T14:07:03;102708.53;;;12.46
64488;BMP280;50864;45.050;39.014;2023-01-01T14:09:32;102714.09;;;12.39
64488;BMP280;50864;45.050;39.014;2023-01-01T14:12:14;102709.16;;;12.31
64488;BMP280;50864;45.050;39.014;2023-01-01T14:14:41;102723.53;;;12.25
64488;BMP280;50864;45.050;39.014;2023-01-01T14:17:07;102725.88;;;12.16
64488;BMP280;50864;45.050;39.014;2023-01-01T14:19:33;102729.25;;;12.12
64488;BMP280;50864;45.050;39.014;2023-01-01T14:22:00;102726.81;;;12.10
64488;BMP280;50864;45.050;39.014;2023-01-01T14:24:30;102723.25;;;12.05
64488;BMP280;50864;45.050;39.014;2023-01-01T14:26:56;102718.84;;;11.99
64488;BMP280;50864;45.050;39.014;2023-01-01T14:29:28;102722.53;;;11.92
64488;BMP280;50864;45.050;39.014;2023-01-01T14:31:57;102721.84;;;11.85
64488;BMP280;50864;45.050;39.014;2023-01-01T14:34:29;102720.94;;;11.80
64488;BMP280;50864;45.050;39.014;2023-01-01T14:36:58;102720.31;;;11.73
64488;BMP280;50864;45.050;39.014;2023-01-01T14:39:32;102707.28;;;11.65
64488;BMP280;50864;45.050;39.014;2023-01-01T14:42:07;102715.00;;;11.61
64488;BMP280;50864;45.050;39.014;2023-01-01T14:44:38;102714.91;;;11.56
64488;BMP280;50864;45.050;39.014;2023-01-01T14:47:23;102708.41;;;11.52
64488;BMP280;50864;45.050;39.014;2023-01-01T14:49:50;102718.31;;;11.52
64488;BMP280;50864;45.050;39.014;2023-01-01T14:52:23;102720.06;;;11.46
64488;BMP280;50864;45.050;39.014;2023-01-01T14:54:50;102722.19;;;11.44
64488;BMP280;50864;45.050;39.014;2023-01-01T14:57:22;102717.87;;;11.43
64488;BMP280;50864;45.050;39.014;2023-01-01T14:59:50;102726.41;;;11.40
64488;BMP280;50864;45.050;39.014;2023-01-01T15:02:26;102713.47;;;11.37
64488;BMP280;50864;45.050;39.014;2023-01-01T15:04:53;102717.69;;;11.33
64488;BMP280;50864;45.050;39.014;2023-01-01T15:07:27;102721.09;;;11.28
64488;BMP280;50864;45.050;39.014;2023-01-01T15:09:55;102718.06;;;11.25
64488;BMP280;50864;45.050;39.014;2023-01-01T15:12:22;102716.12;;;11.20
64488;BMP280;50864;45.050;39.014;2023-01-01T15:14:50;102715.97;;;11.15
64488;BMP280;50864;45.050;39.014;2023-01-01T15:17:19;102715.91;;;11.10
64488;BMP280;50864;45.050;39.014;2023-01-01T15:20:32;102715.81;;;11.05
64488;BMP280;50864;45.050;39.014;2023-01-01T15:22:34;102713.34;;;11.03
64488;BMP280;50864;45.050;39.014;2023-01-01T15:25:04;102717.34;;;11.01
64488;BMP280;50864;45.050;39.014;2023-01-01T15:27:34;102726.09;;;10.96
64488;BMP280;50864;45.050;39.014;2023-01-01T15:30:04;102727.00;;;10.90
64488;BMP280;50864;45.050;39.014;2023-01-01T15:32:33;102733.91;;;10.86
64488;BMP280;50864;45.050;39.014;2023-01-01T15:35:03;102729.81;;;10.84
64488;BMP280;50864;45.050;39.014;2023-01-01T15:37:40;102730.63;;;10.84
64488;BMP280;50864;45.050;39.014;2023-01-01T15:43:04;102738.09;;;10.71
64488;BMP280;50864;45.050;39.014;2023-01-01T15:45:34;102743.56;;;10.64
64488;BMP280;50864;45.050;39.014;2023-01-01T15:50:33;102742.66;;;10.58
64488;BMP280;50864;45.050;39.014;2023-01-01T15:53:10;102741.81;;;10.58
64488;BMP280;50864;45.050;39.014;2023-01-01T15:55:43;102735.69;;;10.57
64488;BMP280;50864;45.050;39.014;2023-01-01T15:58:19;102737.53;;;10.57
64488;BMP280;50864;45.050;39.014;2023-01-01T16:00:54;102739.97;;;10.58
64488;BMP280;50864;45.050;39.014;2023-01-01T16:03:24;102743.72;;;10.57
64488;BMP280;50864;45.050;39.014;2023-01-01T16:05:52;102742.53;;;10.53
64488;BMP280;50864;45.050;39.014;2023-01-01T16:08:20;102750.47;;;10.48
64488;BMP280;50864;45.050;39.014;2023-01-01T16:10:47;102750.91;;;10.45
64488;BMP280;50864;45.050;39.014;2023-01-01T16:13:13;102751.50;;;10.47
64488;BMP280;50864;45.050;39.014;2023-01-01T16:15:59;102748.31;;;10.50